Time;durP1;ratioP1;P1;durP2;ratioP2;P2;SDS_P1;SDS_P2;PMS_P1;PMS_P2;Temp;Humidity;BMP_temperature;BMP_pressure;BME280_temperature;BME280_humidity;BME280_pressure;Samples;Min_cycle;Max_cycle;Signal;HPM_P1;HPM_P2
2023/08/05 00:00:09;;;;;;;4.05;1.50;;;;;;;15.26;100.00;100653.03;5141174;28;20054;-72
2023/08/05 00:02:39;;;;;;;3.70;1.40;;;;;;;15.09;100.00;100653.06;5144572;28;20026;-71
2023/08/05 00:05:10;;;;;;;1.98;1.17;;;;;;;14.96;100.00;100644.09;5141828;28;20023;-70
2023/08/05 00:07:40;;;;;;;3.15;1.23;;;;;;;14.92;100.00;100637.31;5143637;28;20018;-72
2023/08/05 00:10:10;;;;;;;2.03;1.30;;;;;;;14.91;100.00;100649.63;5142812;28;20031;-72
2023/08/05 00:12:40;;;;;;;2.65;1.30;;;;;;;15.04;100.00;100648.03;5117956;28;20026;-70
2023/08/05 00:15:11;;;;;;;4.88;1.70;;;;;;;15.14;100.00;100654.53;5207085;28;20443;-72
2023/08/05 00:17:41;;;;;;;2.90;1.65;;;;;;;15.22;100.00;100668.13;5142056;28;20030;-70
2023/08/05 00:20:12;;;;;;;5.30;1.77;;;;;;;15.21;100.00;100655.88;5138305;28;20031;-70
2023/08/05 00:22:42;;;;;;;4.65;1.85;;;;;;;15.22;100.00;100652.31;5145231;28;20022;-71
2023/08/05 00:25:12;;;;;;;3.83;1.80;;;;;;;15.09;100.00;100653.94;5143587;28;20208;-70
2023/08/05 00:27:43;;;;;;;2.97;1.70;;;;;;;14.92;100.00;100659.22;5127308;28;20026;-72
2023/08/05 00:30:13;;;;;;;3.53;1.58;;;;;;;14.92;100.00;100648.69;5138751;28;20400;-70
2023/08/05 00:32:43;;;;;;;4.00;1.70;;;;;;;14.83;100.00;100664.09;5142867;28;20022;-71
2023/08/05 00:35:14;;;;;;;2.40;1.77;;;;;;;14.90;100.00;100663.72;5137451;28;20037;-69
2023/08/05 00:37:44;;;;;;;2.75;1.65;;;;;;;14.91;100.00;100668.03;5143979;28;20052;-72
2023/08/05 00:40:14;;;;;;;4.22;1.50;;;;;;;14.74;100.00;100672.47;5141980;28;20022;-70
2023/08/05 00:42:45;;;;;;;3.35;1.50;;;;;;;14.77;100.00;100669.66;5140994;28;20049;-71
2023/08/05 00:45:15;;;;;;;2.78;1.48;;;;;;;14.74;100.00;100669.81;5145913;28;20372;-70
2023/08/05 00:47:45;;;;;;;4.18;1.40;;;;;;;14.63;100.00;100664.25;5145608;28;20434;-72
2023/08/05 00:50:16;;;;;;;3.22;1.50;;;;;;;14.60;100.00;100653.06;5200353;28;20046;-71
2023/08/05 00:52:46;;;;;;;2.78;1.40;;;;;;;14.70;100.00;100644.59;5144593;28;20034;-71
2023/08/05 00:55:17;;;;;;;3.50;1.58;;;;;;;14.73;100.00;100646.25;5142887;28;20042;-71
2023/08/05 00:57:47;;;;;;;2.88;1.60;;;;;;;14.69;100.00;100657.81;5148916;28;20022;-69
2023/08/05 01:00:18;;;;;;;4.63;1.80;;;;;;;14.78;100.00;100655.56;5145166;28;20030;-72
2023/08/05 01:02:48;;;;;;;6.78;1.83;;;;;;;14.82;100.00;100653.66;5144953;28;20450;-70
2023/08/05 01:05:20;;;;;;;3.08;1.48;;;;;;;14.89;100.00;100653.25;5146434;28;20053;-72
2023/08/05 01:07:50;;;;;;;6.25;1.55;;;;;;;14.94;100.00;100652.09;5145913;28;20040;-71
2023/08/05 01:10:21;;;;;;;4.88;1.55;;;;;;;14.91;100.00;100651.38;5144980;28;20466;-72
2023/08/05 01:12:51;;;;;;;3.10;1.25;;;;;;;14.78;100.00;100646.84;5126452;28;20409;-72
2023/08/05 01:15:21;;;;;;;3.90;1.33;;;;;;;14.77;100.00;100647.78;5127994;28;20099;-72
2023/08/05 01:17:54;;;;;;;4.20;1.25;;;;;;;14.73;100.00;100643.63;5143569;28;20080;-72
2023/08/05 01:20:32;;;;;;;2.47;1.50;;;;;;;14.60;100.00;100655.69;5141762;28;20023;-71
2023/08/05 01:23:12;;;;;;;1.85;1.10;;;;;;;14.52;100.00;100655.19;5127468;28;20229;-72
2023/08/05 01:25:45;;;;;;;1.70;1.15;;;;;;;14.49;100.00;100652.72;5138157;28;20034;-72
2023/08/05 01:28:16;;;;;;;1.98;1.48;;;;;;;14.40;100.00;100668.97;5117564;28;20029;-71
2023/08/05 01:30:48;;;;;;;2.47;1.40;;;;;;;14.22;100.00;100659.38;5134785;28;20041;-72
2023/08/05 01:33:19;;;;;;;10.00;1.48;;;;;;;14.26;100.00;100656.50;5109025;28;20527;-72
2023/08/05 01:35:50;;;;;;;2.17;1.30;;;;;;;14.14;100.00;100662.34;5126925;28;20038;-71
2023/08/05 01:38:20;;;;;;;2.00;1.40;;;;;;;14.14;100.00;100646.56;5133841;28;20046;-71
2023/08/05 01:40:50;;;;;;;3.13;1.42;;;;;;;14.19;100.00;100654.25;5126407;28;20027;-73
2023/08/05 01:43:20;;;;;;;3.58;1.55;;;;;;;14.24;100.00;100652.25;5136917;28;20038;-71
2023/08/05 01:45:51;;;;;;;2.63;1.52;;;;;;;14.25;100.00;100648.69;5133067;28;20026;-72
2023/08/05 01:48:21;;;;;;;1.40;1.15;;;;;;;14.18;100.00;100652.53;5137240;28;20046;-72
2023/08/05 01:50:51;;;;;;;3.53;1.08;;;;;;;14.04;100.00;100658.44;5133105;28;20035;-72
2023/08/05 01:53:22;;;;;;;2.47;1.60;;;;;;;13.97;100.00;100661.44;5134604;28;20030;-71
2023/08/05 01:55:52;;;;;;;1.63;1.20;;;;;;;14.01;100.00;100660.34;5117753;28;20407;-73
2023/08/05 01:58:22;;;;;;;2.38;1.58;;;;;;;14.03;100.00;100658.50;5141137;28;20026;-71
2023/08/05 02:00:52;;;;;;;3.53;1.30;;;;;;;14.00;100.00;100656.03;5138406;28;20118;-72
2023/08/05 02:03:23;;;;;;;2.40;1.50;;;;;;;14.14;100.00;100654.44;5140611;28;20488;-72
2023/08/05 02:05:53;;;;;;;3.08;1.60;;;;;;;14.08;100.00;100662.63;5140486;28;20085;-73
2023/08/05 02:08:23;;;;;;;3.97;2.00;;;;;;;14.10;100.00;100665.19;5137707;28;20049;-71
2023/08/05 02:10:54;;;;;;;3.55;1.40;;;;;;;13.88;100.00;100665.34;5135501;28;20031;-72
2023/08/05 02:13:24;;;;;;;4.47;1.73;;;;;;;13.64;100.00;100668.28;5139409;28;20058;-72
2023/08/05 02:15:54;;;;;;;3.88;1.50;;;;;;;13.62;100.00;100660.50;5135481;28;20393;-73
2023/08/05 02:18:24;;;;;;;2.72;1.65;;;;;;;13.70;100.00;100665.34;5141339;28;20087;-72
2023/08/05 02:20:55;;;;;;;4.00;1.73;;;;;;;13.93;100.00;100665.13;5118594;28;20451;-72
2023/08/05 02:23:25;;;;;;;3.65;1.63;;;;;;;13.81;100.00;100657.84;5139318;28;20257;-72
2023/08/05 02:25:55;;;;;;;2.95;1.30;;;;;;;13.84;100.00;100658.56;5136182;28;20110;-72
2023/08/05 02:28:25;;;;;;;3.42;1.60;;;;;;;13.80;100.00;100650.88;5140606;28;20030;-72
2023/08/05 02:30:56;;;;;;;4.10;1.80;;;;;;;13.90;100.00;100654.78;5134607;28;20105;-73
2023/08/05 02:33:26;;;;;;;6.80;1.90;;;;;;;14.15;100.00;100652.66;5138065;28;20068;-72
2023/08/05 02:35:59;;;;;;;4.03;1.50;;;;;;;13.88;100.00;100654.84;5138346;28;20038;-73
2023/08/05 02:38:30;;;;;;;2.40;1.38;;;;;;;13.83;100.00;100645.47;5142037;28;20163;-73
2023/08/05 02:41:05;;;;;;;1.80;1.50;;;;;;;13.86;100.00;100640.06;5123569;28;20702;-72
2023/08/05 02:43:35;;;;;;;3.17;1.20;;;;;;;13.77;100.00;100645.78;5139131;28;20041;-73
2023/08/05 02:46:06;;;;;;;3.40;1.55;;;;;;;13.73;100.00;100639.81;5138650;28;20405;-73
2023/08/05 02:48:36;;;;;;;4.82;1.42;;;;;;;13.66;100.00;100642.78;5137766;28;20045;-73
2023/08/05 02:51:06;;;;;;;2.65;1.75;;;;;;;13.69;100.00;100637.38;5138318;28;20035;-72
2023/08/05 02:53:37;;;;;;;1.40;1.20;;;;;;;13.86;100.00;100642.69;5136384;28;20030;-72
2023/08/05 02:56:07;;;;;;;1.63;1.30;;;;;;;13.83;100.00;100646.34;5137424;28;20030;-72
2023/08/05 02:58:37;;;;;;;1.85;1.30;;;;;;;13.97;100.00;100650.94;5139311;28;20042;-73
2023/08/05 03:01:08;;;;;;;2.20;1.20;;;;;;;13.99;100.00;100656.94;5141409;28;20476;-73
2023/08/05 03:03:38;;;;;;;3.42;1.23;;;;;;;13.81;100.00;100661.31;5122997;28;20044;-73
2023/08/05 03:06:09;;;;;;;3.38;1.33;;;;;;;13.78;100.00;100657.97;5136956;28;20027;-72
2023/08/05 03:08:39;;;;;;;1.83;1.13;;;;;;;13.88;100.00;100659.25;5140177;28;20027;-73
2023/08/05 03:11:09;;;;;;;1.40;1.10;;;;;;;13.86;100.00;100653.19;5141458;28;20372;-72
2023/08/05 03:13:39;;;;;;;1.50;0.90;;;;;;;13.43;100.00;100645.66;5134134;28;20023;-72
2023/08/05 03:16:11;;;;;;;1.38;0.80;;;;;;;13.53;100.00;100639.03;5129337;28;20258;-73
2023/08/05 03:18:41;;;;;;;5.07;1.05;;;;;;;13.38;100.00;100639.75;5137531;28;20026;-73
2023/08/05 03:21:12;;;;;;;3.22;1.10;;;;;;;13.42;100.00;100641.31;5134809;28;20451;-72
2023/08/05 03:23:42;;;;;;;0.88;0.80;;;;;;;13.42;100.00;100654.44;5137197;28;20027;-73
2023/08/05 03:26:12;;;;;;;2.25;0.80;;;;;;;13.26;100.00;100653.44;5125351;28;20136;-73
2023/08/05 03:28:43;;;;;;;1.88;0.93;;;;;;;13.16;100.00;100649.50;5133986;28;20031;-73
2023/08/05 03:31:13;;;;;;;3.22;1.00;;;;;;;13.19;100.00;100642.34;5139027;28;20511;-73
2023/08/05 03:33:43;;;;;;;1.85;1.13;;;;;;;13.21;100.00;100639.69;5137637;28;20114;-71
2023/08/05 03:36:14;;;;;;;1.27;0.95;;;;;;;13.33;100.00;100644.34;5139485;28;20038;-73
2023/08/05 03:38:44;;;;;;;2.60;0.90;;;;;;;13.30;100.00;100647.13;5137413;28;20030;-71
2023/08/05 03:41:14;;;;;;;1.40;1.00;;;;;;;13.42;100.00;100646.56;5139084;28;20027;-73
2023/08/05 03:43:44;;;;;;;2.05;0.80;;;;;;;13.43;100.00;100646.47;5137683;28;20369;-71
2023/08/05 03:46:15;;;;;;;1.67;0.80;;;;;;;13.23;100.00;100648.31;5140095;28;20030;-73
2023/08/05 03:48:45;;;;;;;1.05;0.80;;;;;;;13.25;100.00;100649.94;5121289;28;20080;-73
2023/08/05 03:51:15;;;;;;;2.22;0.80;;;;;;;13.33;100.00;100644.34;5138690;28;20134;-73
2023/08/05 03:53:46;;;;;;;4.00;1.00;;;;;;;13.28;100.00;100643.72;5139783;28;20031;-72
2023/08/05 03:56:19;;;;;;;3.72;1.13;;;;;;;13.25;100.00;100641.22;5138907;28;20033;-73
2023/08/05 03:58:51;;;;;;;2.55;0.80;;;;;;;13.34;100.00;100635.53;5135762;28;20488;-71
2023/08/05 04:01:22;;;;;;;1.75;1.17;;;;;;;13.54;100.00;100640.75;5111257;28;20512;-73
2023/08/05 04:03:52;;;;;;;3.13;1.42;;;;;;;13.52;100.00;100634.69;5137655;28;21549;-73
2023/08/05 04:06:24;;;;;;;3.00;1.40;;;;;;;13.42;100.00;100639.53;5140364;28;20034;-73
2023/08/05 04:08:54;;;;;;;1.92;1.25;;;;;;;13.71;100.00;100644.28;5137491;28;20034;-72
2023/08/05 04:11:26;;;;;;;2.03;1.30;;;;;;;13.84;100.00;100645.41;5138236;28;20027;-73
2023/08/05 04:13:58;;;;;;;5.25;1.60;;;;;;;13.78;100.00;100650.09;5119667;28;20072;-73
2023/08/05 04:16:29;;;;;;;3.40;2.20;;;;;;;13.71;100.00;100657.41;5140534;28;20029;-73
2023/08/05 04:18:59;;;;;;;2.72;1.67;;;;;;;13.74;100.00;100661.69;5137152;28;20027;-72
2023/08/05 04:21:35;;;;;;;3.40;1.30;;;;;;;13.67;100.00;100665.50;5122860;28;20027;-73
2023/08/05 04:24:09;;;;;;;3.05;1.50;;;;;;;13.79;100.00;100675.44;5137638;28;20030;-73
2023/08/05 04:26:40;;;;;;;6.80;1.42;;;;;;;14.03;100.00;100680.38;5140318;28;20030;-73
2023/08/05 04:29:10;;;;;;;2.95;1.60;;;;;;;14.02;100.00;100673.44;5140353;28;20055;-73
2023/08/05 04:31:42;;;;;;;3.55;1.95;;;;;;;14.06;100.00;100658.38;5137431;28;20054;-72
2023/08/05 04:34:12;;;;;;;4.50;1.88;;;;;;;14.08;100.00;100653.91;5138311;28;20027;-73
2023/08/05 04:36:49;;;;;;;2.53;1.75;;;;;;;14.28;100.00;100659.06;5139085;28;20230;-72
2023/08/05 04:39:20;;;;;;;2.20;1.52;;;;;;;14.35;100.00;100660.44;5141818;28;20037;-73
2023/08/05 04:41:51;;;;;;;2.17;1.60;;;;;;;14.31;100.00;100653.66;5136997;28;20073;-72
2023/08/05 04:44:22;;;;;;;2.13;1.50;;;;;;;14.25;100.00;100649.53;5139783;28;20580;-72
2023/08/05 04:46:52;;;;;;;2.88;1.60;;;;;;;14.15;100.00;100631.63;5136022;28;20105;-73
2023/08/05 04:49:23;;;;;;;2.38;1.60;;;;;;;14.23;100.00;100640.03;5142106;28;20175;-73
2023/08/05 04:51:53;;;;;;;3.35;1.38;;;;;;;14.48;100.00;100659.78;5135918;28;20022;-72
2023/08/05 04:54:23;;;;;;;5.93;1.50;;;;;;;14.45;100.00;100666.97;5142095;28;20494;-72
2023/08/05 04:56:53;;;;;;;1.42;1.15;;;;;;;14.45;100.00;100666.97;5136733;28;20049;-72
2023/08/05 04:59:24;;;;;;;4.13;1.25;;;;;;;14.41;100.00;100668.06;5141323;28;20445;-73
2023/08/05 05:01:54;;;;;;;3.55;1.52;;;;;;;14.37;100.00;100664.72;5136782;28;20030;-73
2023/08/05 05:04:24;;;;;;;3.78;1.50;;;;;;;14.49;100.00;100660.63;5122729;28;20026;-72
2023/08/05 05:06:54;;;;;;;5.43;1.70;;;;;;;14.59;100.00;100664.50;5137659;28;20026;-73
2023/08/05 05:09:25;;;;;;;3.75;1.83;;;;;;;14.68;100.00;100658.75;5148627;28;20034;-74
2023/08/05 05:11:55;;;;;;;5.20;1.60;;;;;;;14.82;100.00;100666.81;5137768;28;20026;-72
2023/08/05 05:14:25;;;;;;;4.55;2.00;;;;;;;14.83;100.00;100666.75;5112786;28;20030;-73
2023/08/05 05:16:56;;;;;;;2.85;2.03;;;;;;;14.83;100.00;100664.09;5136994;28;20027;-72
2023/08/05 05:19:26;;;;;;;5.93;2.50;;;;;;;14.91;100.00;100670.69;5124823;28;20392;-73
2023/08/05 05:21:56;;;;;;;11.20;2.70;;;;;;;15.06;100.00;100682.19;5120896;28;20026;-73
2023/08/05 05:24:29;;;;;;;4.60;2.38;;;;;;;15.07;100.00;100690.00;5127029;28;20123;-73
2023/08/05 05:26:59;;;;;;;5.63;2.75;;;;;;;15.17;100.00;100685.94;5141460;28;20117;-72
2023/08/05 05:29:29;;;;;;;5.30;2.83;;;;;;;15.21;100.00;100686.66;5125302;28;20163;-73
2023/08/05 05:32:00;;;;;;;5.55;3.13;;;;;;;15.27;100.00;100686.31;5141497;28;20454;-72
2023/08/05 05:34:30;;;;;;;7.90;3.05;;;;;;;15.36;100.00;100681.44;5143805;28;20478;-73
2023/08/05 05:37:00;;;;;;;6.43;3.83;;;;;;;15.61;100.00;100684.47;5124856;28;20497;-73
2023/08/05 05:39:32;;;;;;;6.75;3.75;;;;;;;15.69;100.00;100684.06;5145559;28;20113;-73
2023/08/05 05:42:03;;;;;;;9.38;4.00;;;;;;;15.77;100.00;100687.97;5141506;28;20038;-73
2023/08/05 05:44:33;;;;;;;7.85;3.83;;;;;;;15.86;100.00;100684.00;5145418;28;20027;-73
2023/08/05 05:47:04;;;;;;;8.15;4.50;;;;;;;16.02;100.00;100680.41;5143377;28;20543;-73
2023/08/05 05:49:35;;;;;;;7.50;3.92;;;;;;;15.90;100.00;100685.50;5145328;28;20038;-73
2023/08/05 05:52:07;;;;;;;5.55;3.70;;;;;;;16.03;100.00;100683.91;5136041;28;20026;-73
2023/08/05 05:54:37;;;;;;;6.07;3.58;;;;;;;16.07;100.00;100686.25;5144307;28;20038;-73
2023/08/05 05:57:09;;;;;;;9.57;3.67;;;;;;;16.17;100.00;100681.31;5140379;28;20045;-72
2023/08/05 05:59:39;;;;;;;7.07;3.60;;;;;;;16.26;100.00;100676.41;5145291;28;20023;-73
2023/08/05 06:02:09;;;;;;;5.95;3.88;;;;;;;16.43;100.00;100663.13;5141532;28;20456;-73
2023/08/05 06:04:40;;;;;;;12.82;4.10;;;;;;;16.78;100.00;100659.25;5147633;28;20282;-73
2023/08/05 06:07:10;;;;;;;8.43;4.22;;;;;;;17.43;100.00;100669.31;5125354;28;20461;-71
2023/08/05 06:09:40;;;;;;;6.30;3.70;;;;;;;17.29;100.00;100672.78;5128416;28;20032;-73
2023/08/05 06:12:11;;;;;;;8.23;3.35;;;;;;;17.26;100.00;100670.34;5127805;28;20030;-73
2023/08/05 06:14:41;;;;;;;8.13;3.97;;;;;;;16.92;100.00;100661.91;5131988;28;20471;-72
2023/08/05 06:17:11;;;;;;;6.78;3.90;;;;;;;17.04;100.00;100671.72;5127893;28;20095;-71
2023/08/05 06:19:42;;;;;;;7.95;3.83;;;;;;;17.20;100.00;100678.66;5141729;28;20110;-72
2023/08/05 06:22:12;;;;;;;8.00;3.80;;;;;;;17.23;100.00;100669.66;5126610;28;20023;-73
2023/08/05 06:24:43;;;;;;;8.75;3.42;;;;;;;17.09;100.00;100677.56;5142286;28;20076;-73
2023/08/05 06:27:13;;;;;;;7.10;3.25;;;;;;;16.86;100.00;100672.84;5132970;28;20032;-71
2023/08/05 06:29:43;;;;;;;6.55;3.45;;;;;;;17.24;100.00;100666.09;5142197;28;20454;-72
2023/08/05 06:32:13;;;;;;;5.78;3.35;;;;;;;17.34;100.00;100664.63;5128627;28;20031;-73
2023/08/05 06:34:44;;;;;;;7.05;3.42;;;;;;;17.52;100.00;100666.13;5122350;28;20034;-73
2023/08/05 06:37:14;;;;;;;7.13;3.33;;;;;;;17.71;100.00;100674.59;5142198;28;20030;-72
2023/08/05 06:39:45;;;;;;;5.88;3.25;;;;;;;18.01;100.00;100670.00;5116530;28;20026;-73
2023/08/05 06:42:15;;;;;;;11.02;3.75;;;;;;;18.14;100.00;100668.28;5125819;28;20038;-73
2023/08/05 06:44:47;;;;;;;6.53;3.17;;;;;;;18.40;100.00;100670.06;5141049;28;20515;-71
2023/08/05 06:47:18;;;;;;;6.38;2.65;;;;;;;18.58;100.00;100660.91;5124013;28;20087;-72
2023/08/05 06:49:49;;;;;;;4.57;2.72;;;;;;;18.66;100.00;100650.66;5118517;28;20019;-71
2023/08/05 06:52:19;;;;;;;7.07;2.55;;;;;;;18.64;100.00;100649.91;5141023;28;20060;-72
2023/08/05 06:54:50;;;;;;;4.55;2.55;;;;;;;18.80;100.00;100639.00;5136990;28;20117;-73
2023/08/05 06:57:20;;;;;;;6.13;2.42;;;;;;;19.04;100.00;100637.34;5141355;28;20038;-72
2023/08/05 06:59:50;;;;;;;4.13;2.00;;;;;;;19.67;100.00;100624.91;5108569;28;20567;-72
2023/08/05 07:02:21;;;;;;;7.70;2.38;;;;;;;20.23;100.00;100618.09;5138589;28;20034;-74
2023/08/05 07:04:53;;;;;;;4.30;2.00;;;;;;;20.67;92.76;100620.94;5120146;28;20117;-73
2023/08/05 07:07:23;;;;;;;8.45;1.50;;;;;;;22.14;87.99;100609.94;5124938;28;20213;-73
2023/08/05 07:10:00;;;;;;;2.73;1.23;;;;;;;23.82;76.41;100612.97;5151649;28;20056;-74
2023/08/05 07:12:32;;;;;;;5.63;1.42;;;;;;;22.81;80.78;100613.00;5126208;28;20340;-75
2023/08/05 07:15:03;;;;;;;2.85;1.20;;;;;;;22.68;84.01;100617.69;5120189;28;20100;-73
2023/08/05 07:17:35;;;;;;;4.75;1.38;;;;;;;24.01;81.51;100602.31;5140780;28;20030;-73
2023/08/05 07:20:06;;;;;;;3.25;1.13;;;;;;;25.34;76.50;100607.53;5136049;28;20574;-74
2023/08/05 07:25:18;;;;;;;3.72;1.17;;;;;;;24.51;73.56;100601.19;5207368;28;20128;-75
2023/08/05 07:27:49;;;;;;;6.47;1.10;;;;;;;24.63;74.57;100599.25;5202691;28;20505;-74
2023/08/05 07:30:19;;;;;;;3.47;1.10;;;;;;;25.43;68.29;100599.47;5206907;28;20651;-75
2023/08/05 07:32:49;;;;;;;4.00;1.20;;;;;;;25.02;71.50;100596.34;5208901;28;20029;-74
2023/08/05 07:35:20;;;;;;;2.93;1.10;;;;;;;27.02;64.59;100591.31;5208728;28;20068;-74
2023/08/05 07:37:50;;;;;;;3.53;1.45;;;;;;;27.10;64.71;100583.38;5208592;28;20275;-74
2023/08/05 07:40:20;;;;;;;5.63;1.45;;;;;;;28.14;61.94;100587.28;5210191;28;20514;-74
2023/08/05 07:42:52;;;;;;;3.00;1.08;;;;;;;28.30;62.53;100581.09;5205640;28;20017;-74
2023/08/05 07:45:22;;;;;;;3.33;1.13;;;;;;;25.47;68.05;100597.34;5207485;28;20033;-74
2023/08/05 07:47:53;;;;;;;4.33;0.97;;;;;;;27.08;67.08;100590.72;5204409;28;20399;-74
2023/08/05 07:50:24;;;;;;;2.72;1.00;;;;;;;26.45;65.78;100601.75;5212541;28;20091;-74
2023/08/05 07:52:54;;;;;;;2.15;0.98;;;;;;;27.68;64.18;100590.53;5205737;28;20537;-73
2023/08/05 07:55:29;;;;;;;2.23;0.70;;;;;;;29.93;55.40;100579.38;5208594;28;20029;-74
2023/08/05 07:58:00;;;;;;;3.65;1.05;;;;;;;28.11;58.17;100590.31;5205028;28;20617;-74
2023/08/05 08:00:31;;;;;;;3.70;0.98;;;;;;;29.01;59.87;100582.94;5208053;28;20140;-74
2023/08/05 08:03:01;;;;;;;5.55;1.08;;;;;;;28.25;59.67;100581.59;5204001;28;20097;-74
2023/08/05 08:05:32;;;;;;;3.53;1.00;;;;;;;27.14;65.70;100592.78;5207462;28;20486;-74
2023/08/05 08:08:02;;;;;;;45.87;4.87;;;;;;;27.57;62.40;100584.56;5203943;28;20280;-74
2023/08/05 08:10:32;;;;;;;3.08;0.80;;;;;;;29.33;57.75;100572.94;5209160;28;20768;-74
2023/08/05 08:13:02;;;;;;;5.87;1.00;;;;;;;29.60;57.40;100575.19;5204950;28;20689;-74
2023/08/05 08:15:33;;;;;;;5.73;1.40;;;;;;;28.91;59.36;100576.91;5207149;28;20039;-74
2023/08/05 08:18:03;;;;;;;6.47;1.37;;;;;;;29.11;59.48;100568.31;5206479;28;20352;-74
2023/08/05 08:20:33;;;;;;;2.00;0.95;;;;;;;28.13;55.71;100564.09;5209892;28;20029;-74
2023/08/05 08:23:04;;;;;;;5.73;1.40;;;;;;;28.63;59.86;100556.72;5204771;28;20234;-74
2023/08/05 08:25:36;;;;;;;4.37;1.00;;;;;;;29.07;59.36;100545.41;5206559;28;20367;-74
2023/08/05 08:28:07;;;;;;;4.32;1.20;;;;;;;28.17;58.86;100553.84;5203613;28;20037;-74
2023/08/05 08:30:37;;;;;;;3.03;0.80;;;;;;;29.52;53.87;100550.13;5205283;28;20293;-74
2023/08/05 08:33:07;;;;;;;3.70;1.07;;;;;;;29.09;57.41;100553.31;5203999;28;20527;-74
2023/08/05 08:35:38;;;;;;;3.00;0.90;;;;;;;28.78;55.84;100538.88;5207152;28;20278;-73
2023/08/05 08:38:08;;;;;;;2.70;1.00;;;;;;;29.29;53.68;100549.19;5205556;28;20176;-74
2023/08/05 08:40:47;;;;;;;2.83;0.80;;;;;;;30.73;53.08;100526.69;5205835;28;20472;-74
2023/08/05 08:43:19;;;;;;;4.05;1.00;;;;;;;28.99;59.28;100540.06;5210744;28;20517;-74
2023/08/05 08:45:53;;;;;;;2.20;1.00;;;;;;;28.92;57.65;100539.03;5204867;28;20044;-73
2023/08/05 08:48:24;;;;;;;3.17;0.87;;;;;;;29.25;55.89;100531.72;5207764;28;20103;-74
2023/08/05 08:50:54;;;;;;;3.00;1.00;;;;;;;29.40;55.24;100521.88;5208006;28;20128;-74
2023/08/05 08:53:26;;;;;;;2.90;0.90;;;;;;;30.94;54.77;100509.59;5209391;28;20067;-74
2023/08/05 08:55:56;;;;;;;2.88;0.95;;;;;;;32.23;53.41;100497.88;5211847;28;20040;-74
2023/08/05 08:58:27;;;;;;;3.42;0.93;;;;;;;30.68;55.43;100507.50;5215157;28;20063;-74
2023/08/05 09:00:58;;;;;;;3.90;0.87;;;;;;;32.70;52.91;100507.03;5211215;28;20116;-74
2023/08/05 09:03:30;;;;;;;4.10;1.10;;;;;;;31.60;53.04;100516.72;5212903;28;20482;-74
2023/08/05 09:06:00;;;;;;;2.10;0.90;;;;;;;30.68;54.74;100516.47;5215011;28;20115;-72
2023/08/05 09:08:33;;;;;;;7.65;1.38;;;;;;;28.10;56.21;100518.72;5214029;28;20430;-74
2023/08/05 09:11:04;;;;;;;3.63;1.40;;;;;;;28.62;56.23;100519.25;5210600;28;20036;-73
2023/08/05 09:13:34;;;;;;;3.25;0.93;;;;;;;26.10;62.01;100529.41;5216376;28;20025;-73
2023/08/05 09:16:04;;;;;;;2.10;0.90;;;;;;;26.65;60.35;100521.00;5213364;28;20036;-72
2023/08/05 09:18:42;;;;;;;2.20;1.02;;;;;;;26.24;61.85;100508.28;5213106;28;20030;-73
2023/08/05 09:21:21;;;;;;;4.32;1.00;;;;;;;25.62;60.33;100510.13;5217531;28;20103;-73
2023/08/05 09:23:54;;;;;;;2.60;1.02;;;;;;;24.69;63.95;100519.31;5211595;28;20489;-72
2023/08/05 09:26:28;;;;;;;4.18;0.98;;;;;;;24.78;64.11;100524.63;5215480;28;20029;-72
2023/08/05 09:28:59;;;;;;;3.35;1.15;;;;;;;24.46;64.67;100520.59;5209709;28;20036;-72
2023/08/05 09:31:29;;;;;;;3.47;1.08;;;;;;;25.55;60.84;100507.25;5212982;28;20033;-73
2023/08/05 09:34:04;;;;;;;3.95;1.13;;;;;;;25.82;58.95;100492.97;5211106;28;20032;-72
2023/08/05 09:36:34;;;;;;;1.88;0.93;;;;;;;25.36;62.17;100493.13;5215510;28;20016;-72
2023/08/05 09:39:11;;;;;;;2.85;1.40;;;;;;;24.55;63.08;100506.38;5213937;28;20032;-71
2023/08/05 09:41:49;;;;;;;2.35;0.93;;;;;;;24.37;62.95;100512.59;5220487;28;20036;-72
2023/08/05 09:44:20;;;;;;;2.35;1.00;;;;;;;23.54;65.30;100504.25;5211321;28;20116;-71
2023/08/05 09:46:52;;;;;;;3.60;1.08;;;;;;;24.19;62.55;100499.13;5213701;28;20119;-72
2023/08/05 09:49:24;;;;;;;2.75;0.93;;;;;;;24.66;62.23;100492.88;5209960;28;20444;-72
2023/08/05 09:51:55;;;;;;;3.80;0.98;;;;;;;24.39;63.76;100482.06;5210783;28;20497;-72
2023/08/05 09:54:30;;;;;;;4.35;1.00;;;;;;;;;;5213294;28;20028;-73
2023/08/05 09:57:03;;;;;;;3.42;1.20;;;;;;;24.69;63.65;100489.06;5215656;28;20363;-72
2023/08/05 09:59:33;;;;;;;4.00;1.13;;;;;;;23.93;65.26;100498.03;5213190;28;20044;-72
2023/08/05 10:02:06;;;;;;;2.08;0.98;;;;;;;23.44;64.64;100500.75;5217827;28;20028;-72
2023/08/05 10:04:36;;;;;;;3.50;1.33;;;;;;;23.07;66.43;100499.63;5213526;28;20041;-72
2023/08/05 10:07:07;;;;;;;4.07;1.15;;;;;;;23.01;66.41;100497.47;5209333;28;21112;-71
2023/08/05 10:09:39;;;;;;;2.63;1.02;;;;;;;22.66;68.38;100498.03;5213810;28;20578;-72
2023/08/05 10:12:10;;;;;;;4.85;1.30;;;;;;;22.64;68.32;100486.66;5208140;28;20441;-72
2023/08/05 10:14:41;;;;;;;2.88;1.20;;;;;;;22.16;73.69;100493.47;5211039;28;20074;-74
2023/08/05 10:17:11;;;;;;;4.40;1.40;;;;;;;22.20;72.86;100484.25;5208858;28;20029;-71
2023/08/05 10:19:47;;;;;;;3.75;1.20;;;;;;;22.28;69.58;100476.47;5216295;28;20273;-72
2023/08/05 10:22:25;;;;;;;4.20;1.20;;;;;;;22.17;72.98;100472.06;5211305;28;20041;-72
2023/08/05 10:25:00;;;;;;;2.22;1.20;;;;;;;22.42;74.90;100476.19;5207756;28;20056;-72
2023/08/05 10:27:44;;;;;;;5.22;1.23;;;;;;;22.43;72.03;100467.22;5209336;28;20066;-72
2023/08/05 10:30:16;;;;;;;3.65;1.30;;;;;;;22.41;72.63;100475.31;5211273;28;20029;-72
2023/08/05 10:32:51;;;;;;;3.78;1.35;;;;;;;22.27;73.53;100469.47;5211961;28;20197;-72
2023/08/05 10:35:27;;;;;;;2.65;1.35;;;;;;;22.59;70.49;100467.56;5210198;28;20067;-72
2023/08/05 10:38:24;;;;;;;5.72;1.50;;;;;;;22.69;73.04;100463.97;5204218;28;20049;-72
2023/08/05 10:41:03;;;;;;;3.08;1.60;;;;;;;22.34;75.00;100467.94;5206506;28;20037;-72
2023/08/05 10:43:35;;;;;;;4.43;2.05;;;;;;;22.66;76.16;100469.56;5210356;28;20036;-72
2023/08/05 10:46:05;;;;;;;5.03;1.60;;;;;;;22.06;72.98;100472.13;5212424;28;20042;-71
2023/08/05 10:48:44;;;;;;;3.15;1.67;;;;;;;22.63;74.98;100466.31;5212071;28;20029;-72
2023/08/05 10:51:18;;;;;;;4.18;2.10;;;;;;;22.59;75.86;100451.59;5205758;28;20033;-72
2023/08/05 10:53:51;;;;;;;3.90;1.80;;;;;;;23.10;72.02;100443.34;5208393;28;20032;-70
2023/08/05 10:56:31;;;;;;;2.97;1.50;;;;;;;22.82;69.25;100446.75;5211812;28;20549;-72
2023/08/05 10:59:02;;;;;;;3.97;1.80;;;;;;;22.82;71.66;100449.44;5203400;28;20116;-72
2023/08/05 11:01:55;;;;;;;3.33;1.23;;;;;;;23.09;69.56;100440.81;5208727;28;20048;-72
2023/08/05 11:04:27;;;;;;;2.97;1.45;;;;;;;22.97;71.19;100439.22;5207349;28;20032;-72
2023/08/05 11:07:00;;;;;;;2.95;1.60;;;;;;;22.96;71.58;100435.72;5203909;28;20033;-72
2023/08/05 11:09:33;;;;;;;5.05;1.33;;;;;;;23.20;72.20;100432.75;5209385;28;20040;-72
2023/08/05 11:12:06;;;;;;;3.38;1.35;;;;;;;23.41;69.22;100434.31;5203883;28;20486;-72
2023/08/05 11:14:37;;;;;;;2.50;1.20;;;;;;;23.16;71.32;100431.34;5206453;28;20040;-72
2023/08/05 11:17:08;;;;;;;2.65;1.00;;;;;;;23.01;68.49;100422.81;5206599;28;20443;-72
2023/08/05 11:20:05;;;;;;;2.10;1.10;;;;;;;22.88;67.95;100422.22;5208743;28;20055;-72
2023/08/05 11:22:36;;;;;;;2.15;1.10;;;;;;;23.00;67.89;100422.97;5202254;28;20032;-72
2023/08/05 11:25:07;;;;;;;4.18;1.20;;;;;;;23.48;69.35;100403.41;5206069;28;20025;-72
2023/08/05 11:27:43;;;;;;;2.45;1.10;;;;;;;23.65;64.35;100399.19;5205110;28;20099;-72
2023/08/05 11:30:15;;;;;;;3.40;1.40;;;;;;;23.88;68.17;100397.97;5214617;28;20380;-72
2023/08/05 11:32:56;;;;;;;3.22;1.10;;;;;;;23.92;72.38;100394.88;5207925;28;20056;-70
2023/08/05 11:35:27;;;;;;;3.50;1.10;;;;;;;23.74;68.27;100387.69;5214510;28;20474;-72
2023/08/05 11:37:57;;;;;;;2.80;1.10;;;;;;;23.76;66.40;100380.38;5206519;28;20045;-72
2023/08/05 11:40:27;;;;;;;2.70;1.08;;;;;;;23.00;66.22;100389.16;5208038;28;20259;-72
2023/08/05 11:42:58;;;;;;;3.20;1.27;;;;;;;23.29;65.64;100373.22;5209282;28;20556;-72